sensor_id;sensor_type;location;lat;lon;timestamp;P1;durP1;ratioP1;P2;durP2;ratioP2
74753;SDS011;63271;53.340;-6.260;2023-04-05T06:01:33;2.97;;;0.95;;
74753;SDS011;63271;53.340;-6.260;2023-04-05T06:04:02;1.63;;;0.65;;
74753;SDS011;63271;53.340;-6.260;2023-04-05T06:06:28;2.50;;;0.60;;
74753;SDS011;63271;53.340;-6.260;2023-04-05T06:08:54;0.45;;;0.30;;
74753;SDS011;63271;53.340;-6.260;2023-04-05T06:11:21;2.50;;;0.40;;
74753;SDS011;63271;53.340;-6.260;2023-04-05T06:13:48;2.05;;;0.38;;
74753;SDS011;63271;53.340;-6.260;2023-04-05T06:16:15;2.88;;;0.90;;
74753;SDS011;63271;53.340;-6.260;2023-04-05T06:18:43;2.20;;;0.50;;
74753;SDS011;63271;53.340;-6.260;2023-04-05T06:21:09;0.47;;;0.47;;
74753;SDS011;63271;53.340;-6.260;2023-04-05T06:23:35;2.03;;;0.50;;
74753;SDS011;63271;53.340;-6.260;2023-04-05T06:26:00;2.17;;;0.68;;
74753;SDS011;63271;53.340;-6.260;2023-04-05T06:28:26;1.58;;;0.65;;
74753;SDS011;63271;53.340;-6.260;2023-04-05T06:30:52;1.25;;;0.65;;
74753;SDS011;63271;53.340;-6.260;2023-04-05T06:33:18;2.85;;;0.65;;
74753;SDS011;63271;53.340;-6.260;2023-04-05T06:35:43;1.48;;;0.43;;
74753;SDS011;63271;53.340;-6.260;2023-04-05T06:38:08;2.05;;;0.93;;
74753;SDS011;63271;53.340;-6.260;2023-04-05T06:40:34;5.20;;;0.57;;
74753;SDS011;63271;53.340;-6.260;2023-04-05T06:43:02;2.00;;;0.90;;
74753;SDS011;63271;53.340;-6.260;2023-04-05T06:45:27;2.05;;;0.77;;
74753;SDS011;63271;53.340;-6.260;2023-04-05T06:47:52;3.45;;;0.73;;
74753;SDS011;63271;53.340;-6.260;2023-04-05T06:50:18;3.40;;;0.90;;
74753;SDS011;63271;53.340;-6.260;2023-04-05T06:52:43;2.75;;;1.10;;
74753;SDS011;63271;53.340;-6.260;2023-04-05T06:55:11;1.83;;;0.68;;
74753;SDS011;63271;53.340;-6.260;2023-04-05T06:57:36;2.50;;;1.05;;
74753;SDS011;63271;53.340;-6.260;2023-04-05T07:00:02;5.07;;;0.98;;
74753;SDS011;63271;53.340;-6.260;2023-04-05T07:02:33;3.08;;;0.80;;
74753;SDS011;63271;53.340;-6.260;2023-04-05T07:04:58;4.18;;;0.82;;
74753;SDS011;63271;53.340;-6.260;2023-04-05T07:07:29;4.13;;;0.82;;
74753;SDS011;63271;53.340;-6.260;2023-04-05T07:09:54;6.65;;;1.42;;
74753;SDS011;63271;53.340;-6.260;2023-04-05T07:12:20;4.00;;;0.85;;
74753;SDS011;63271;53.340;-6.260;2023-04-05T07:14:45;3.80;;;0.75;;
74753;SDS011;63271;53.340;-6.260;2023-04-05T07:17:11;11.80;;;1.23;;
74753;SDS011;63271;53.340;-6.260;2023-04-05T07:19:36;9.27;;;1.15;;
74753;SDS011;63271;53.340;-6.260;2023-04-05T07:22:01;13.07;;;1.60;;
74753;SDS011;63271;53.340;-6.260;2023-04-05T07:24:27;5.32;;;1.45;;
74753;SDS011;63271;53.340;-6.260;2023-04-05T07:26:55;6.65;;;1.35;;
74753;SDS011;63271;53.340;-6.260;2023-04-05T07:29:21;8.43;;;1.67;;
74753;SDS011;63271;53.340;-6.260;2023-04-05T07:31:46;5.43;;;1.50;;
74753;SDS011;63271;53.340;-6.260;2023-04-05T07:34:12;9.75;;;2.20;;
74753;SDS011;63271;53.340;-6.260;2023-04-05T07:36:37;7.03;;;1.50;;
74753;SDS011;63271;53.340;-6.260;2023-04-05T07:39:02;6.70;;;1.42;;
74753;SDS011;63271;53.340;-6.260;2023-04-05T07:41:29;6.05;;;0.80;;
74753;SDS011;63271;53.340;-6.260;2023-04-05T07:43:56;10.52;;;1.15;;
74753;SDS011;63271;53.340;-6.260;2023-04-05T07:46:22;5.53;;;1.52;;
74753;SDS011;63271;53.340;-6.260;2023-04-05T07:48:47;12.70;;;1.50;;
74753;SDS011;63271;53.340;-6.260;2023-04-05T07:51:13;12.18;;;4.75;;
74753;SDS011;63271;53.340;-6.260;2023-04-05T07:53:38;6.70;;;1.60;;
74753;SDS011;63271;53.340;-6.260;2023-04-05T07:56:05;13.90;;;1.48;;
74753;SDS011;63271;53.340;-6.260;2023-04-05T07:58:32;8.45;;;1.60;;
74753;SDS011;63271;53.340;-6.260;2023-04-05T08:01:01;7.30;;;1.98;;
74753;SDS011;63271;53.340;-6.260;2023-04-05T08:03:28;5.57;;;1.20;;
74753;SDS011;63271;53.340;-6.260;2023-04-05T08:05:54;9.95;;;1.75;;
74753;SDS011;63271;53.340;-6.260;2023-04-05T08:08:20;5.93;;;0.93;;
74753;SDS011;63271;53.340;-6.260;2023-04-05T08:10:46;7.95;;;1.35;;
74753;SDS011;63271;53.340;-6.260;2023-04-05T08:13:12;4.85;;;1.20;;
74753;SDS011;63271;53.340;-6.260;2023-04-05T08:15:38;9.07;;;1.30;;
74753;SDS011;63271;53.340;-6.260;2023-04-05T08:18:04;5.00;;;1.30;;
74753;SDS011;63271;53.340;-6.260;2023-04-05T08:20:30;7.38;;;1.48;;
74753;SDS011;63271;53.340;-6.260;2023-04-05T08:23:02;10.68;;;1.33;;
74753;SDS011;63271;53.340;-6.260;2023-04-05T08:25:31;12.32;;;2.22;;
74753;SDS011;63271;53.340;-6.260;2023-04-05T08:27:57;6.07;;;1.38;;
74753;SDS011;63271;53.340;-6.260;2023-04-05T08:30:22;5.70;;;1.48;;
74753;SDS011;63271;53.340;-6.260;2023-04-05T08:32:48;3.78;;;1.23;;
74753;SDS011;63271;53.340;-6.260;2023-04-05T08:35:13;11.35;;;1.33;;
74753;SDS011;63271;53.340;-6.260;2023-04-05T08:37:40;7.93;;;1.30;;
74753;SDS011;63271;53.340;-6.260;2023-04-05T08:40:05;5.13;;;1.10;;
74753;SDS011;63271;53.340;-6.260;2023-04-05T08:42:36;9.77;;;1.67;;
74753;SDS011;63271;53.340;-6.260;2023-04-05T08:45:08;10.13;;;1.85;;
74753;SDS011;63271;53.340;-6.260;2023-04-05T08:47:36;7.35;;;1.35;;
74753;SDS011;63271;53.340;-6.260;2023-04-05T08:50:05;9.13;;;1.75;;
74753;SDS011;63271;53.340;-6.260;2023-04-05T08:52:31;11.15;;;1.80;;
74753;SDS011;63271;53.340;-6.260;2023-04-05T08:54:57;8.73;;;1.60;;
74753;SDS011;63271;53.340;-6.260;2023-04-05T08:57:25;7.10;;;1.15;;
74753;SDS011;63271;53.340;-6.260;2023-04-05T08:59:53;3.78;;;1.10;;
74753;SDS011;63271;53.340;-6.260;2023-04-05T09:02:20;6.28;;;1.88;;
74753;SDS011;63271;53.340;-6.260;2023-04-05T09:04:47;3.97;;;1.10;;
74753;SDS011;63271;53.340;-6.260;2023-04-05T09:07:12;7.47;;;1.40;;
74753;SDS011;63271;53.340;-6.260;2023-04-05T09:09:38;7.07;;;1.08;;
74753;SDS011;63271;53.340;-6.260;2023-04-05T09:12:07;5.88;;;1.25;;
74753;SDS011;63271;53.340;-6.260;2023-04-05T09:14:33;5.60;;;1.50;;
74753;SDS011;63271;53.340;-6.260;2023-04-05T09:17:00;3.05;;;1.00;;
74753;SDS011;63271;53.340;-6.260;2023-04-05T09:19:29;5.43;;;1.00;;
74753;SDS011;63271;53.340;-6.260;2023-04-05T09:29:41;7.57;;;2.00;;
74753;SDS011;63271;53.340;-6.260;2023-04-05T09:32:11;6.53;;;1.08;;
74753;SDS011;63271;53.340;-6.260;2023-04-05T09:34:38;4.05;;;1.45;;
74753;SDS011;63271;53.340;-6.260;2023-04-05T09:37:13;6.85;;;1.20;;
74753;SDS011;63271;53.340;-6.260;2023-04-05T09:39:44;8.05;;;1.00;;
74753;SDS011;63271;53.340;-6.260;2023-04-05T09:42:11;9.50;;;1.48;;
74753;SDS011;63271;53.340;-6.260;2023-04-05T09:45:14;4.68;;;1.83;;
74753;SDS011;63271;53.340;-6.260;2023-04-05T09:47:32;4.15;;;1.00;;
74753;SDS011;63271;53.340;-6.260;2023-04-05T09:49:59;4.70;;;0.95;;
74753;SDS011;63271;53.340;-6.260;2023-04-05T09:52:28;2.88;;;0.75;;
74753;SDS011;63271;53.340;-6.260;2023-04-05T09:54:58;8.57;;;1.33;;
74753;SDS011;63271;53.340;-6.260;2023-04-05T09:57:25;4.35;;;1.30;;
74753;SDS011;63271;53.340;-6.260;2023-04-05T09:59:51;2.80;;;1.00;;
74753;SDS011;63271;53.340;-6.260;2023-04-05T10:02:17;4.20;;;1.00;;
74753;SDS011;63271;53.340;-6.260;2023-04-05T10:04:44;5.93;;;1.17;;
74753;SDS011;63271;53.340;-6.260;2023-04-05T10:07:17;14.25;;;1.98;;
74753;SDS011;63271;53.340;-6.260;2023-04-05T10:09:44;2.70;;;1.10;;
74753;SDS011;63271;53.340;-6.260;2023-04-05T10:12:23;4.35;;;1.00;;
74753;SDS011;63271;53.340;-6.260;2023-04-05T10:14:53;6.65;;;1.50;;
74753;SDS011;63271;53.340;-6.260;2023-04-05T10:17:43;5.38;;;1.42;;
74753;SDS011;63271;53.340;-6.260;2023-04-05T10:20:22;3.22;;;1.13;;
74753;SDS011;63271;53.340;-6.260;2023-04-05T10:28:31;0.90;;;0.68;;
74753;SDS011;63271;53.340;-6.260;2023-04-05T10:33:46;3.67;;;1.10;;
74753;SDS011;63271;53.340;-6.260;2023-04-05T10:36:36;6.10;;;0.90;;
74753;SDS011;63271;53.340;-6.260;2023-04-05T10:39:11;7.57;;;1.42;;
74753;SDS011;63271;53.340;-6.260;2023-04-05T10:42:21;14.25;;;3.13;;
74753;SDS011;63271;53.340;-6.260;2023-04-05T10:44:38;2.70;;;0.95;;
74753;SDS011;63271;53.340;-6.260;2023-04-05T10:47:03;10.02;;;1.27;;
74753;SDS011;63271;53.340;-6.260;2023-04-05T10:49:36;7.30;;;1.30;;
74753;SDS011;63271;53.340;-6.260;2023-04-05T10:52:07;3.55;;;1.15;;
74753;SDS011;63271;53.340;-6.260;2023-04-05T10:54:33;5.30;;;1.00;;
74753;SDS011;63271;53.340;-6.260;2023-04-05T10:57:02;13.57;;;1.90;;
74753;SDS011;63271;53.340;-6.260;2023-04-05T10:59:28;8.35;;;1.70;;
74753;SDS011;63271;53.340;-6.260;2023-04-05T11:01:54;4.82;;;1.25;;
74753;SDS011;63271;53.340;-6.260;2023-04-05T11:04:19;6.68;;;1.60;;
74753;SDS011;63271;53.340;-6.260;2023-04-05T11:06:47;9.82;;;1.90;;
74753;SDS011;63271;53.340;-6.260;2023-04-05T11:09:54;4.35;;;1.15;;
74753;SDS011;63271;53.340;-6.260;2023-04-05T11:20:27;4.40;;;1.35;;
74753;SDS011;63271;53.340;-6.260;2023-04-05T11:23:22;6.90;;;1.50;;
74753;SDS011;63271;53.340;-6.260;2023-04-05T11:26:04;5.03;;;1.38;;
74753;SDS011;63271;53.340;-6.260;2023-04-05T11:28:34;12.55;;;1.83;;
74753;SDS011;63271;53.340;-6.260;2023-04-05T11:31:16;4.13;;;1.08;;
74753;SDS011;63271;53.340;-6.260;2023-04-05T11:36:08;6.60;;;1.15;;
74753;SDS011;63271;53.340;-6.260;2023-04-05T11:38:34;6.25;;;1.42;;
74753;SDS011;63271;53.340;-6.260;2023-04-05T11:41:10;5.57;;;1.15;;
74753;SDS011;63271;53.340;-6.260;2023-04-05T11:43:41;7.72;;;1.50;;
74753;SDS011;63271;53.340;-6.260;2023-04-05T11:46:07;9.38;;;1.60;;
74753;SDS011;63271;53.340;-6.260;2023-04-05T11:48:33;2.70;;;1.10;;
74753;SDS011;63271;53.340;-6.260;2023-04-05T11:50:58;5.80;;;1.60;;
74753;SDS011;63271;53.340;-6.260;2023-04-05T11:53:24;4.63;;;1.17;;
74753;SDS011;63271;53.340;-6.260;2023-04-05T11:55:50;3.35;;;1.20;;
74753;SDS011;63271;53.340;-6.260;2023-04-05T11:58:20;5.72;;;1.40;;
74753;SDS011;63271;53.340;-6.260;2023-04-05T12:00:58;11.75;;;2.10;;
74753;SDS011;63271;53.340;-6.260;2023-04-05T12:03:28;5.97;;;1.48;;
74753;SDS011;63271;53.340;-6.260;2023-04-05T12:05:54;4.72;;;1.33;;
74753;SDS011;63271;53.340;-6.260;2023-04-05T12:08:21;7.65;;;1.40;;
74753;SDS011;63271;53.340;-6.260;2023-04-05T12:10:57;14.38;;;1.67;;
74753;SDS011;63271;53.340;-6.260;2023-04-05T12:13:25;5.43;;;1.55;;
74753;SDS011;63271;53.340;-6.260;2023-04-05T12:15:58;3.78;;;1.20;;
74753;SDS011;63271;53.340;-6.260;2023-04-05T12:18:24;4.13;;;0.93;;
74753;SDS011;63271;53.340;-6.260;2023-04-05T12:20:53;2.90;;;0.93;;
74753;SDS011;63271;53.340;-6.260;2023-04-05T12:23:19;3.25;;;1.02;;
74753;SDS011;63271;53.340;-6.260;2023-04-05T12:25:48;5.55;;;1.15;;
74753;SDS011;63271;53.340;-6.260;2023-04-05T12:28:14;9.77;;;1.10;;
74753;SDS011;63271;53.340;-6.260;2023-04-05T12:35:52;3.17;;;1.13;;
74753;SDS011;63271;53.340;-6.260;2023-04-05T12:38:18;5.40;;;1.38;;
74753;SDS011;63271;53.340;-6.260;2023-04-05T12:40:43;2.78;;;1.15;;
74753;SDS011;63271;53.340;-6.260;2023-04-05T12:43:10;4.95;;;1.60;;
74753;SDS011;63271;53.340;-6.260;2023-04-05T12:45:35;4.10;;;1.45;;
74753;SDS011;63271;53.340;-6.260;2023-04-05T12:48:07;3.90;;;1.00;;
74753;SDS011;63271;53.340;-6.260;2023-04-05T12:50:43;5.78;;;1.73;;
74753;SDS011;63271;53.340;-6.260;2023-04-05T12:53:14;2.65;;;1.33;;
74753;SDS011;63271;53.340;-6.260;2023-04-05T12:55:51;8.90;;;2.00;;
74753;SDS011;63271;53.340;-6.260;2023-04-05T12:58:21;5.60;;;1.30;;
74753;SDS011;63271;53.340;-6.260;2023-04-05T13:00:51;3.50;;;1.10;;
74753;SDS011;63271;53.340;-6.260;2023-04-05T13:03:17;8.27;;;1.50;;
74753;SDS011;63271;53.340;-6.260;2023-04-05T13:05:44;2.95;;;1.15;;
74753;SDS011;63271;53.340;-6.260;2023-04-05T13:08:14;5.53;;;1.17;;
74753;SDS011;63271;53.340;-6.260;2023-04-05T13:10:42;6.50;;;1.17;;
74753;SDS011;63271;53.340;-6.260;2023-04-05T13:13:08;6.18;;;1.38;;
74753;SDS011;63271;53.340;-6.260;2023-04-05T13:15:36;2.58;;;1.10;;
74753;SDS011;63271;53.340;-6.260;2023-04-05T13:18:01;4.18;;;1.55;;
74753;SDS011;63271;53.340;-6.260;2023-04-05T13:20:27;4.15;;;1.20;;
74753;SDS011;63271;53.340;-6.260;2023-04-05T13:22:52;4.78;;;1.52;;
74753;SDS011;63271;53.340;-6.260;2023-04-05T13:25:18;4.00;;;1.10;;
74753;SDS011;63271;53.340;-6.260;2023-04-05T13:27:43;3.90;;;1.45;;
74753;SDS011;63271;53.340;-6.260;2023-04-05T13:30:09;7.38;;;1.42;;
74753;SDS011;63271;53.340;-6.260;2023-04-05T13:32:35;4.85;;;1.70;;
74753;SDS011;63271;53.340;-6.260;2023-04-05T13:35:00;7.47;;;1.58;;
74753;SDS011;63271;53.340;-6.260;2023-04-05T13:37:26;4.53;;;1.50;;
74753;SDS011;63271;53.340;-6.260;2023-04-05T13:39:51;3.28;;;1.10;;
74753;SDS011;63271;53.340;-6.260;2023-04-05T13:42:19;2.63;;;1.05;;
74753;SDS011;63271;53.340;-6.260;2023-04-05T13:44:44;2.47;;;1.10;;
74753;SDS011;63271;53.340;-6.260;2023-04-05T13:47:10;2.75;;;1.00;;
74753;SDS011;63271;53.340;-6.260;2023-04-05T13:49:38;6.75;;;1.58;;
74753;SDS011;63271;53.340;-6.260;2023-04-05T13:52:04;6.55;;;1.38;;
74753;SDS011;63271;53.340;-6.260;2023-04-05T13:54:30;8.13;;;3.20;;
74753;SDS011;63271;53.340;-6.260;2023-04-05T13:56:55;6.25;;;1.90;;
74753;SDS011;63271;53.340;-6.260;2023-04-05T13:59:21;7.38;;;1.83;;
74753;SDS011;63271;53.340;-6.260;2023-04-05T14:01:46;3.58;;;1.58;;
74753;SDS011;63271;53.340;-6.260;2023-04-05T14:04:12;7.22;;;1.83;;
74753;SDS011;63271;53.340;-6.260;2023-04-05T14:06:37;11.57;;;1.80;;
74753;SDS011;63271;53.340;-6.260;2023-04-05T14:09:05;4.72;;;1.27;;
74753;SDS011;63271;53.340;-6.260;2023-04-05T14:11:31;6.80;;;1.10;;
74753;SDS011;63271;53.340;-6.260;2023-04-05T14:13:56;5.75;;;1.20;;
74753;SDS011;63271;53.340;-6.260;2023-04-05T14:16:22;3.35;;;1.33;;
74753;SDS011;63271;53.340;-6.260;2023-04-05T14:18:47;2.60;;;1.00;;
74753;SDS011;63271;53.340;-6.260;2023-04-05T14:21:13;4.60;;;1.77;;
74753;SDS011;63271;53.340;-6.260;2023-04-05T14:23:38;3.05;;;1.20;;
74753;SDS011;63271;53.340;-6.260;2023-04-05T14:26:04;11.30;;;1.60;;
74753;SDS011;63271;53.340;-6.260;2023-04-05T14:28:29;2.30;;;1.13;;
74753;SDS011;63271;53.340;-6.260;2023-04-05T14:30:55;5.10;;;1.23;;
74753;SDS011;63271;53.340;-6.260;2023-04-05T14:33:22;4.25;;;1.52;;
74753;SDS011;63271;53.340;-6.260;2023-04-05T14:35:48;5.35;;;1.38;;
74753;SDS011;63271;53.340;-6.260;2023-04-05T14:38:13;5.43;;;1.42;;
74753;SDS011;63271;53.340;-6.260;2023-04-05T14:40:39;5.15;;;1.90;;
74753;SDS011;63271;53.340;-6.260;2023-04-05T14:43:05;6.25;;;1.55;;
74753;SDS011;63271;53.340;-6.260;2023-04-05T14:45:32;5.45;;;1.38;;
74753;SDS011;63271;53.340;-6.260;2023-04-05T14:47:58;7.60;;;0.98;;
74753;SDS011;63271;53.340;-6.260;2023-04-05T14:50:24;4.55;;;0.85;;
74753;SDS011;63271;53.340;-6.260;2023-04-05T14:52:51;6.10;;;0.90;;
74753;SDS011;63271;53.340;-6.260;2023-04-05T14:55:17;4.82;;;1.25;;
74753;SDS011;63271;53.340;-6.260;2023-04-05T14:57:43;3.17;;;0.90;;
74753;SDS011;63271;53.340;-6.260;2023-04-05T15:00:09;7.50;;;2.00;;
74753;SDS011;63271;53.340;-6.260;2023-04-05T15:02:35;3.25;;;1.20;;
74753;SDS011;63271;53.340;-6.260;2023-04-05T15:05:02;5.93;;;1.52;;
74753;SDS011;63271;53.340;-6.260;2023-04-05T15:07:28;6.68;;;1.30;;
74753;SDS011;63271;53.340;-6.260;2023-04-05T15:09:53;3.72;;;1.30;;
74753;SDS011;63271;53.340;-6.260;2023-04-05T15:12:19;6.22;;;1.40;;
74753;SDS011;63271;53.340;-6.260;2023-04-05T15:14:45;5.80;;;2.03;;
74753;SDS011;63271;53.340;-6.260;2023-04-05T15:17:12;11.68;;;1.85;;
74753;SDS011;63271;53.340;-6.260;2023-04-05T15:19:38;3.85;;;1.20;;
74753;SDS011;63271;53.340;-6.260;2023-04-05T15:22:06;5.35;;;1.25;;
74753;SDS011;63271;53.340;-6.260;2023-04-05T15:24:31;8.43;;;1.90;;
74753;SDS011;63271;53.340;-6.260;2023-04-05T15:26:57;5.63;;;1.02;;
74753;SDS011;63271;53.340;-6.260;2023-04-05T15:29:26;9.43;;;2.40;;
74753;SDS011;63271;53.340;-6.260;2023-04-05T15:31:52;5.65;;;1.80;;
74753;SDS011;63271;53.340;-6.260;2023-04-05T15:34:18;7.93;;;2.53;;
74753;SDS011;63271;53.340;-6.260;2023-04-05T15:36:43;11.52;;;2.85;;
74753;SDS011;63271;53.340;-6.260;2023-04-05T15:39:09;14.05;;;3.53;;
74753;SDS011;63271;53.340;-6.260;2023-04-05T15:41:34;12.60;;;2.78;;
74753;SDS011;63271;53.340;-6.260;2023-04-05T15:44:00;13.13;;;2.88;;
74753;SDS011;63271;53.340;-6.260;2023-04-05T15:46:25;10.20;;;2.90;;
74753;SDS011;63271;53.340;-6.260;2023-04-05T15:48:52;13.13;;;2.80;;
74753;SDS011;63271;53.340;-6.260;2023-04-05T15:51:18;18.25;;;3.30;;
74753;SDS011;63271;53.340;-6.260;2023-04-05T15:53:46;19.08;;;3.53;;
74753;SDS011;63271;53.340;-6.260;2023-04-05T15:56:11;14.95;;;4.30;;
74753;SDS011;63271;53.340;-6.260;2023-04-05T15:58:36;14.57;;;4.10;;
74753;SDS011;63271;53.340;-6.260;2023-04-05T16:01:02;15.98;;;2.85;;
74753;SDS011;63271;53.340;-6.260;2023-04-05T16:03:28;15.38;;;3.60;;
74753;SDS011;63271;53.340;-6.260;2023-04-05T16:05:53;15.85;;;3.50;;
74753;SDS011;63271;53.340;-6.260;2023-04-05T16:08:18;14.85;;;3.42;;
74753;SDS011;63271;53.340;-6.260;2023-04-05T16:10:46;16.92;;;3.90;;
74753;SDS011;63271;53.340;-6.260;2023-04-05T16:13:14;21.42;;;5.28;;
74753;SDS011;63271;53.340;-6.260;2023-04-05T16:15:42;13.02;;;3.10;;
74753;SDS011;63271;53.340;-6.260;2023-04-05T16:18:08;13.98;;;3.95;;
74753;SDS011;63271;53.340;-6.260;2023-04-05T16:20:38;14.10;;;3.10;;
74753;SDS011;63271;53.340;-6.260;2023-04-05T16:23:05;16.05;;;4.60;;
74753;SDS011;63271;53.340;-6.260;2023-04-05T16:25:30;10.98;;;2.53;;
74753;SDS011;63271;53.340;-6.260;2023-04-05T16:28:01;13.18;;;2.65;;
74753;SDS011;63271;53.340;-6.260;2023-04-05T16:30:30;20.23;;;3.03;;
74753;SDS011;63271;53.340;-6.260;2023-04-05T16:32:55;12.98;;;2.70;;
74753;SDS011;63271;53.340;-6.260;2023-04-05T16:35:21;13.20;;;2.92;;
74753;SDS011;63271;53.340;-6.260;2023-04-05T16:37:46;19.42;;;4.05;;
74753;SDS011;63271;53.340;-6.260;2023-04-05T16:40:12;22.58;;;5.18;;
74753;SDS011;63271;53.340;-6.260;2023-04-05T16:42:37;17.55;;;3.22;;
74753;SDS011;63271;53.340;-6.260;2023-04-05T16:45:05;20.40;;;3.55;;
74753;SDS011;63271;53.340;-6.260;2023-04-05T16:47:31;22.42;;;3.47;;
74753;SDS011;63271;53.340;-6.260;2023-04-05T16:49:56;16.77;;;3.50;;
74753;SDS011;63271;53.340;-6.260;2023-04-05T16:52:22;12.02;;;3.03;;
74753;SDS011;63271;53.340;-6.260;2023-04-05T16:54:48;18.27;;;4.07;;
74753;SDS011;63271;53.340;-6.260;2023-04-05T16:57:13;19.13;;;3.83;;
74753;SDS011;63271;53.340;-6.260;2023-04-05T16:59:39;21.83;;;3.92;;
74753;SDS011;63271;53.340;-6.260;2023-04-05T17:02:05;17.38;;;4.07;;
74753;SDS011;63271;53.340;-6.260;2023-04-05T17:04:31;19.55;;;3.60;;
74753;SDS011;63271;53.340;-6.260;2023-04-05T17:06:56;19.63;;;3.58;;
74753;SDS011;63271;53.340;-6.260;2023-04-05T17:09:22;12.25;;;2.80;;
74753;SDS011;63271;53.340;-6.260;2023-04-05T17:11:51;17.95;;;4.28;;
74753;SDS011;63271;53.340;-6.260;2023-04-05T17:14:17;18.92;;;3.55;;
74753;SDS011;63271;53.340;-6.260;2023-04-05T17:16:43;18.38;;;3.53;;
74753;SDS011;63271;53.340;-6.260;2023-04-05T17:19:08;17.73;;;3.92;;
74753;SDS011;63271;53.340;-6.260;2023-04-05T17:21:33;22.55;;;3.88;;
74753;SDS011;63271;53.340;-6.260;2023-04-05T17:23:59;16.23;;;3.20;;
74753;SDS011;63271;53.340;-6.260;2023-04-05T17:26:24;14.00;;;3.10;;
74753;SDS011;63271;53.340;-6.260;2023-04-05T17:28:53;19.40;;;4.57;;
74753;SDS011;63271;53.340;-6.260;2023-04-05T17:31:18;15.25;;;3.33;;
74753;SDS011;63271;53.340;-6.260;2023-04-05T17:33:44;23.05;;;4.07;;
74753;SDS011;63271;53.340;-6.260;2023-04-05T17:36:09;19.40;;;3.65;;
74753;SDS011;63271;53.340;-6.260;2023-04-05T17:38:35;18.95;;;2.90;;
74753;SDS011;63271;53.340;-6.260;2023-04-05T17:41:01;14.18;;;3.03;;
74753;SDS011;63271;53.340;-6.260;2023-04-05T17:43:27;20.35;;;4.25;;
74753;SDS011;63271;53.340;-6.260;2023-04-05T17:45:52;22.92;;;4.03;;
74753;SDS011;63271;53.340;-6.260;2023-04-05T17:48:18;17.73;;;4.25;;
74753;SDS011;63271;53.340;-6.260;2023-04-05T17:50:44;24.75;;;4.65;;
74753;SDS011;63271;53.340;-6.260;2023-04-05T17:53:12;18.08;;;3.95;;
74753;SDS011;63271;53.340;-6.260;2023-04-05T17:55:38;23.73;;;4.25;;
74753;SDS011;63271;53.340;-6.260;2023-04-05T17:58:03;22.20;;;4.68;;
74753;SDS011;63271;53.340;-6.260;2023-04-05T18:00:29;18.52;;;4.00;;
74753;SDS011;63271;53.340;-6.260;2023-04-05T18:02:54;21.52;;;4.13;;
74753;SDS011;63271;53.340;-6.260;2023-04-05T18:05:20;20.02;;;3.38;;
74753;SDS011;63271;53.340;-6.260;2023-04-05T18:07:45;23.15;;;4.10;;
74753;SDS011;63271;53.340;-6.260;2023-04-05T18:10:13;14.80;;;3.35;;
74753;SDS011;63271;53.340;-6.260;2023-04-05T18:12:38;13.20;;;3.25;;
74753;SDS011;63271;53.340;-6.260;2023-04-05T18:15:04;17.08;;;4.32;;
74753;SDS011;63271;53.340;-6.260;2023-04-05T18:17:30;16.88;;;3.80;;
74753;SDS011;63271;53.340;-6.260;2023-04-05T18:19:55;24.15;;;4.20;;
74753;SDS011;63271;53.340;-6.260;2023-04-05T18:22:23;21.85;;;4.00;;
74753;SDS011;63271;53.340;-6.260;2023-04-05T18:24:48;21.27;;;3.55;;
74753;SDS011;63271;53.340;-6.260;2023-04-05T18:27:14;16.42;;;4.00;;
74753;SDS011;63271;53.340;-6.260;2023-04-05T18:29:39;22.42;;;5.15;;
74753;SDS011;63271;53.340;-6.260;2023-04-05T18:32:05;18.95;;;4.85;;
74753;SDS011;63271;53.340;-6.260;2023-04-05T18:34:31;16.20;;;5.32;;
74753;SDS011;63271;53.340;-6.260;2023-04-05T18:36:57;27.23;;;6.03;;
74753;SDS011;63271;53.340;-6.260;2023-04-05T18:39:25;27.80;;;4.70;;
74753;SDS011;63271;53.340;-6.260;2023-04-05T18:41:51;21.85;;;5.57;;
74753;SDS011;63271;53.340;-6.260;2023-04-05T18:44:21;17.83;;;4.65;;
74753;SDS011;63271;53.340;-6.260;2023-04-05T18:46:46;22.40;;;5.28;;
74753;SDS011;63271;53.340;-6.260;2023-04-05T18:49:12;27.95;;;3.80;;
74753;SDS011;63271;53.340;-6.260;2023-04-05T18:51:40;23.88;;;4.68;;
74753;SDS011;63271;53.340;-6.260;2023-04-05T18:54:05;25.63;;;3.88;;
74753;SDS011;63271;53.340;-6.260;2023-04-05T18:56:31;24.23;;;6.05;;
74753;SDS011;63271;53.340;-6.260;2023-04-05T18:58:56;20.80;;;5.43;;
